sensor_id;sensor_type;location;lat;lon;timestamp;P1;durP1;ratioP1;P2;durP2;ratioP2
8556;SDS011;4316;53.840;10.762;2024-01-06T00:01:38;3.50;;;3.20;;
8556;SDS011;4316;53.840;10.762;2024-01-06T00:04:03;5.03;;;3.93;;
8556;SDS011;4316;53.840;10.762;2024-01-06T00:06:29;3.73;;;3.43;;
8556;SDS011;4316;53.840;10.762;2024-01-06T00:08:55;3.37;;;2.83;;
8556;SDS011;4316;53.840;10.762;2024-01-06T00:11:20;4.47;;;3.60;;
8556;SDS011;4316;53.840;10.762;2024-01-06T00:13:47;4.77;;;3.77;;
8556;SDS011;4316;53.840;10.762;2024-01-06T00:16:12;3.47;;;3.17;;
8556;SDS011;4316;53.840;10.762;2024-01-06T00:18:38;3.80;;;3.37;;
8556;SDS011;4316;53.840;10.762;2024-01-06T00:21:04;4.20;;;3.47;;
8556;SDS011;4316;53.840;10.762;2024-01-06T00:23:30;5.27;;;4.03;;
8556;SDS011;4316;53.840;10.762;2024-01-06T00:25:56;4.00;;;3.60;;
8556;SDS011;4316;53.840;10.762;2024-01-06T00:28:21;4.27;;;3.83;;
8556;SDS011;4316;53.840;10.762;2024-01-06T00:30:47;6.13;;;4.13;;
8556;SDS011;4316;53.840;10.762;2024-01-06T00:33:12;4.97;;;3.37;;
8556;SDS011;4316;53.840;10.762;2024-01-06T00:35:38;4.67;;;3.83;;
8556;SDS011;4316;53.840;10.762;2024-01-06T00:38:04;5.87;;;3.83;;
8556;SDS011;4316;53.840;10.762;2024-01-06T00:40:29;3.97;;;3.57;;
8556;SDS011;4316;53.840;10.762;2024-01-06T00:42:57;4.57;;;3.80;;
8556;SDS011;4316;53.840;10.762;2024-01-06T00:45:22;5.57;;;4.43;;
8556;SDS011;4316;53.840;10.762;2024-01-06T00:47:48;4.87;;;3.60;;
8556;SDS011;4316;53.840;10.762;2024-01-06T00:50:14;5.77;;;3.53;;
8556;SDS011;4316;53.840;10.762;2024-01-06T00:52:39;7.07;;;4.20;;
8556;SDS011;4316;53.840;10.762;2024-01-06T00:55:06;4.97;;;3.93;;
8556;SDS011;4316;53.840;10.762;2024-01-06T00:57:32;3.80;;;3.50;;
8556;SDS011;4316;53.840;10.762;2024-01-06T00:59:58;4.07;;;3.77;;
8556;SDS011;4316;53.840;10.762;2024-01-06T01:02:23;4.07;;;3.67;;
8556;SDS011;4316;53.840;10.762;2024-01-06T01:04:49;5.23;;;4.07;;
8556;SDS011;4316;53.840;10.762;2024-01-06T01:07:15;4.13;;;3.73;;
8556;SDS011;4316;53.840;10.762;2024-01-06T01:09:41;4.83;;;3.90;;
8556;SDS011;4316;53.840;10.762;2024-01-06T01:12:06;6.13;;;4.37;;
8556;SDS011;4316;53.840;10.762;2024-01-06T01:14:32;5.10;;;3.97;;
8556;SDS011;4316;53.840;10.762;2024-01-06T01:16:57;4.17;;;3.77;;
8556;SDS011;4316;53.840;10.762;2024-01-06T01:19:23;3.93;;;3.53;;
8556;SDS011;4316;53.840;10.762;2024-01-06T01:21:48;7.13;;;4.13;;
8556;SDS011;4316;53.840;10.762;2024-01-06T01:24:14;8.80;;;3.93;;
8556;SDS011;4316;53.840;10.762;2024-01-06T01:26:39;5.97;;;4.40;;
8556;SDS011;4316;53.840;10.762;2024-01-06T01:29:05;5.77;;;5.00;;
8556;SDS011;4316;53.840;10.762;2024-01-06T01:31:30;4.30;;;3.90;;
8556;SDS011;4316;53.840;10.762;2024-01-06T01:33:56;4.03;;;3.73;;
8556;SDS011;4316;53.840;10.762;2024-01-06T01:36:21;3.80;;;3.47;;
8556;SDS011;4316;53.840;10.762;2024-01-06T01:38:47;4.90;;;4.27;;
8556;SDS011;4316;53.840;10.762;2024-01-06T01:41:12;4.67;;;4.23;;
8556;SDS011;4316;53.840;10.762;2024-01-06T01:43:38;5.00;;;3.97;;
8556;SDS011;4316;53.840;10.762;2024-01-06T01:46:04;5.67;;;4.30;;
8556;SDS011;4316;53.840;10.762;2024-01-06T01:48:30;5.50;;;5.00;;
8556;SDS011;4316;53.840;10.762;2024-01-06T01:50:58;5.17;;;4.20;;
8556;SDS011;4316;53.840;10.762;2024-01-06T01:53:24;4.83;;;4.43;;
8556;SDS011;4316;53.840;10.762;2024-01-06T01:55:51;4.50;;;4.00;;
8556;SDS011;4316;53.840;10.762;2024-01-06T01:58:17;4.70;;;4.20;;
8556;SDS011;4316;53.840;10.762;2024-01-06T02:00:43;4.70;;;3.87;;
8556;SDS011;4316;53.840;10.762;2024-01-06T02:03:09;4.33;;;3.77;;
8556;SDS011;4316;53.840;10.762;2024-01-06T02:05:36;3.90;;;3.47;;
8556;SDS011;4316;53.840;10.762;2024-01-06T02:08:01;6.80;;;4.37;;
8556;SDS011;4316;53.840;10.762;2024-01-06T02:10:27;4.23;;;3.83;;
8556;SDS011;4316;53.840;10.762;2024-01-06T02:12:54;6.13;;;4.00;;
8556;SDS011;4316;53.840;10.762;2024-01-06T02:15:19;4.27;;;3.87;;
8556;SDS011;4316;53.840;10.762;2024-01-06T02:17:45;9.57;;;4.87;;
8556;SDS011;4316;53.840;10.762;2024-01-06T02:20:11;8.27;;;4.70;;
8556;SDS011;4316;53.840;10.762;2024-01-06T02:22:37;5.90;;;4.30;;
8556;SDS011;4316;53.840;10.762;2024-01-06T02:25:04;7.47;;;4.50;;
8556;SDS011;4316;53.840;10.762;2024-01-06T02:27:37;5.60;;;4.33;;
8556;SDS011;4316;53.840;10.762;2024-01-06T02:30:06;8.67;;;5.10;;
8556;SDS011;4316;53.840;10.762;2024-01-06T02:32:32;5.40;;;4.40;;
8556;SDS011;4316;53.840;10.762;2024-01-06T02:34:58;7.47;;;5.13;;
8556;SDS011;4316;53.840;10.762;2024-01-06T02:37:23;5.47;;;4.43;;
8556;SDS011;4316;53.840;10.762;2024-01-06T02:39:49;5.50;;;4.83;;
8556;SDS011;4316;53.840;10.762;2024-01-06T02:42:14;6.13;;;4.70;;
8556;SDS011;4316;53.840;10.762;2024-01-06T02:44:40;5.77;;;4.90;;
8556;SDS011;4316;53.840;10.762;2024-01-06T02:47:05;5.67;;;5.07;;
8556;SDS011;4316;53.840;10.762;2024-01-06T02:49:31;7.07;;;5.03;;
8556;SDS011;4316;53.840;10.762;2024-01-06T02:51:57;5.37;;;4.27;;
8556;SDS011;4316;53.840;10.762;2024-01-06T02:54:22;6.10;;;4.37;;
8556;SDS011;4316;53.840;10.762;2024-01-06T02:56:48;5.67;;;5.07;;
8556;SDS011;4316;53.840;10.762;2024-01-06T02:59:13;5.03;;;4.53;;
8556;SDS011;4316;53.840;10.762;2024-01-06T03:01:39;6.63;;;5.17;;
8556;SDS011;4316;53.840;10.762;2024-01-06T03:04:04;9.33;;;5.83;;
8556;SDS011;4316;53.840;10.762;2024-01-06T03:06:31;6.23;;;5.50;;
8556;SDS011;4316;53.840;10.762;2024-01-06T03:08:57;6.27;;;5.10;;
8556;SDS011;4316;53.840;10.762;2024-01-06T03:11:23;6.53;;;5.37;;
8556;SDS011;4316;53.840;10.762;2024-01-06T03:13:48;7.33;;;4.97;;
8556;SDS011;4316;53.840;10.762;2024-01-06T03:16:14;7.03;;;5.13;;
8556;SDS011;4316;53.840;10.762;2024-01-06T03:18:39;5.57;;;5.07;;
8556;SDS011;4316;53.840;10.762;2024-01-06T03:21:05;7.77;;;5.17;;
8556;SDS011;4316;53.840;10.762;2024-01-06T03:23:41;4.63;;;4.23;;
8556;SDS011;4316;53.840;10.762;2024-01-06T03:26:07;4.87;;;4.33;;
8556;SDS011;4316;53.840;10.762;2024-01-06T03:28:33;5.23;;;4.73;;
8556;SDS011;4316;53.840;10.762;2024-01-06T03:30:58;7.47;;;5.13;;
8556;SDS011;4316;53.840;10.762;2024-01-06T03:33:24;6.87;;;5.37;;
8556;SDS011;4316;53.840;10.762;2024-01-06T03:35:49;6.37;;;5.27;;
8556;SDS011;4316;53.840;10.762;2024-01-06T03:38:15;6.37;;;5.17;;
8556;SDS011;4316;53.840;10.762;2024-01-06T03:40:41;9.93;;;4.80;;
8556;SDS011;4316;53.840;10.762;2024-01-06T03:43:06;5.70;;;4.90;;
8556;SDS011;4316;53.840;10.762;2024-01-06T03:45:32;8.03;;;5.20;;
8556;SDS011;4316;53.840;10.762;2024-01-06T03:47:57;6.80;;;5.87;;
8556;SDS011;4316;53.840;10.762;2024-01-06T03:50:23;5.77;;;5.23;;
8556;SDS011;4316;53.840;10.762;2024-01-06T03:52:49;7.30;;;5.13;;
8556;SDS011;4316;53.840;10.762;2024-01-06T03:55:15;6.20;;;5.10;;
8556;SDS011;4316;53.840;10.762;2024-01-06T03:57:41;8.10;;;5.53;;
8556;SDS011;4316;53.840;10.762;2024-01-06T04:00:07;6.17;;;4.83;;
8556;SDS011;4316;53.840;10.762;2024-01-06T04:02:33;8.07;;;5.53;;
8556;SDS011;4316;53.840;10.762;2024-01-06T04:04:59;8.33;;;5.90;;
8556;SDS011;4316;53.840;10.762;2024-01-06T04:07:24;7.40;;;5.30;;
8556;SDS011;4316;53.840;10.762;2024-01-06T04:09:50;8.60;;;5.70;;
8556;SDS011;4316;53.840;10.762;2024-01-06T04:12:15;6.77;;;5.70;;
8556;SDS011;4316;53.840;10.762;2024-01-06T04:14:41;8.60;;;6.30;;
8556;SDS011;4316;53.840;10.762;2024-01-06T04:17:06;7.13;;;5.23;;
8556;SDS011;4316;53.840;10.762;2024-01-06T04:19:32;8.77;;;5.50;;
8556;SDS011;4316;53.840;10.762;2024-01-06T04:21:58;6.63;;;5.97;;
8556;SDS011;4316;53.840;10.762;2024-01-06T04:24:24;7.00;;;5.30;;
8556;SDS011;4316;53.840;10.762;2024-01-06T04:26:50;6.97;;;5.77;;
8556;SDS011;4316;53.840;10.762;2024-01-06T04:29:15;7.17;;;6.00;;
8556;SDS011;4316;53.840;10.762;2024-01-06T04:31:41;7.17;;;5.77;;
8556;SDS011;4316;53.840;10.762;2024-01-06T04:34:07;6.13;;;4.90;;
8556;SDS011;4316;53.840;10.762;2024-01-06T04:36:32;7.37;;;6.10;;
8556;SDS011;4316;53.840;10.762;2024-01-06T04:38:58;6.60;;;5.93;;
8556;SDS011;4316;53.840;10.762;2024-01-06T04:41:23;7.20;;;5.93;;
8556;SDS011;4316;53.840;10.762;2024-01-06T04:43:49;7.30;;;6.30;;
8556;SDS011;4316;53.840;10.762;2024-01-06T04:46:14;7.10;;;5.97;;
8556;SDS011;4316;53.840;10.762;2024-01-06T04:48:40;6.50;;;5.80;;
8556;SDS011;4316;53.840;10.762;2024-01-06T04:51:06;8.33;;;6.10;;
8556;SDS011;4316;53.840;10.762;2024-01-06T04:53:35;8.27;;;6.07;;
8556;SDS011;4316;53.840;10.762;2024-01-06T04:56:01;8.50;;;6.87;;
8556;SDS011;4316;53.840;10.762;2024-01-06T04:58:27;8.00;;;5.67;;
8556;SDS011;4316;53.840;10.762;2024-01-06T05:00:52;9.87;;;6.30;;
8556;SDS011;4316;53.840;10.762;2024-01-06T05:03:18;10.00;;;7.10;;
8556;SDS011;4316;53.840;10.762;2024-01-06T05:05:43;7.07;;;5.93;;
8556;SDS011;4316;53.840;10.762;2024-01-06T05:08:09;9.03;;;6.77;;
8556;SDS011;4316;53.840;10.762;2024-01-06T05:10:35;9.13;;;6.63;;
8556;SDS011;4316;53.840;10.762;2024-01-06T05:13:00;11.90;;;7.07;;
8556;SDS011;4316;53.840;10.762;2024-01-06T05:15:26;10.03;;;6.53;;
8556;SDS011;4316;53.840;10.762;2024-01-06T05:17:52;10.00;;;7.13;;
8556;SDS011;4316;53.840;10.762;2024-01-06T05:20:17;7.63;;;6.10;;
8556;SDS011;4316;53.840;10.762;2024-01-06T05:22:43;8.37;;;6.63;;
8556;SDS011;4316;53.840;10.762;2024-01-06T05:25:08;8.13;;;6.93;;
8556;SDS011;4316;53.840;10.762;2024-01-06T05:27:34;8.47;;;6.33;;
8556;SDS011;4316;53.840;10.762;2024-01-06T05:30:00;10.60;;;6.70;;
8556;SDS011;4316;53.840;10.762;2024-01-06T05:32:26;9.50;;;7.23;;
8556;SDS011;4316;53.840;10.762;2024-01-06T05:34:52;9.60;;;7.03;;
8556;SDS011;4316;53.840;10.762;2024-01-06T05:37:17;7.87;;;6.40;;
8556;SDS011;4316;53.840;10.762;2024-01-06T05:39:43;8.63;;;6.57;;
8556;SDS011;4316;53.840;10.762;2024-01-06T05:42:09;8.57;;;7.37;;
8556;SDS011;4316;53.840;10.762;2024-01-06T05:44:37;13.03;;;6.30;;
8556;SDS011;4316;53.840;10.762;2024-01-06T05:47:03;11.30;;;6.40;;
8556;SDS011;4316;53.840;10.762;2024-01-06T05:49:29;9.33;;;6.80;;
8556;SDS011;4316;53.840;10.762;2024-01-06T05:51:54;9.20;;;7.07;;
8556;SDS011;4316;53.840;10.762;2024-01-06T05:54:20;8.03;;;6.60;;
8556;SDS011;4316;53.840;10.762;2024-01-06T05:56:45;9.73;;;6.00;;
8556;SDS011;4316;53.840;10.762;2024-01-06T05:59:11;8.07;;;6.40;;
8556;SDS011;4316;53.840;10.762;2024-01-06T06:01:36;9.93;;;6.80;;
8556;SDS011;4316;53.840;10.762;2024-01-06T06:04:02;10.53;;;6.63;;
8556;SDS011;4316;53.840;10.762;2024-01-06T06:06:28;9.60;;;6.40;;
8556;SDS011;4316;53.840;10.762;2024-01-06T06:08:53;6.90;;;5.80;;
8556;SDS011;4316;53.840;10.762;2024-01-06T06:11:19;9.70;;;5.90;;
8556;SDS011;4316;53.840;10.762;2024-01-06T06:13:44;7.77;;;6.37;;
8556;SDS011;4316;53.840;10.762;2024-01-06T06:16:10;8.83;;;6.60;;
8556;SDS011;4316;53.840;10.762;2024-01-06T06:18:39;6.67;;;5.60;;
8556;SDS011;4316;53.840;10.762;2024-01-06T06:21:06;9.13;;;5.80;;
8556;SDS011;4316;53.840;10.762;2024-01-06T06:23:33;8.30;;;6.03;;
8556;SDS011;4316;53.840;10.762;2024-01-06T06:25:59;6.43;;;5.33;;
8556;SDS011;4316;53.840;10.762;2024-01-06T06:28:28;8.13;;;5.03;;
8556;SDS011;4316;53.840;10.762;2024-01-06T06:30:53;8.07;;;5.60;;
8556;SDS011;4316;53.840;10.762;2024-01-06T06:33:19;8.80;;;6.20;;
8556;SDS011;4316;53.840;10.762;2024-01-06T06:35:44;7.27;;;6.20;;
8556;SDS011;4316;53.840;10.762;2024-01-06T06:38:10;8.73;;;6.57;;
8556;SDS011;4316;53.840;10.762;2024-01-06T06:40:36;8.83;;;6.93;;
8556;SDS011;4316;53.840;10.762;2024-01-06T06:43:02;12.30;;;7.40;;
8556;SDS011;4316;53.840;10.762;2024-01-06T06:45:28;8.63;;;6.13;;
8556;SDS011;4316;53.840;10.762;2024-01-06T06:47:53;9.97;;;6.53;;
8556;SDS011;4316;53.840;10.762;2024-01-06T06:50:19;7.33;;;6.17;;
8556;SDS011;4316;53.840;10.762;2024-01-06T06:52:45;10.13;;;6.10;;
8556;SDS011;4316;53.840;10.762;2024-01-06T06:55:11;10.53;;;6.37;;
8556;SDS011;4316;53.840;10.762;2024-01-06T06:57:37;8.73;;;6.70;;
8556;SDS011;4316;53.840;10.762;2024-01-06T07:00:03;6.37;;;5.47;;
8556;SDS011;4316;53.840;10.762;2024-01-06T07:02:29;8.50;;;5.93;;
8556;SDS011;4316;53.840;10.762;2024-01-06T07:04:55;6.40;;;5.47;;
8556;SDS011;4316;53.840;10.762;2024-01-06T07:07:20;9.87;;;5.63;;
8556;SDS011;4316;53.840;10.762;2024-01-06T07:09:46;8.10;;;6.13;;
8556;SDS011;4316;53.840;10.762;2024-01-06T07:12:11;8.97;;;6.70;;
8556;SDS011;4316;53.840;10.762;2024-01-06T07:14:37;8.53;;;6.10;;
8556;SDS011;4316;53.840;10.762;2024-01-06T07:17:03;8.67;;;6.27;;
8556;SDS011;4316;53.840;10.762;2024-01-06T07:19:29;8.20;;;6.07;;
8556;SDS011;4316;53.840;10.762;2024-01-06T07:21:58;9.67;;;6.27;;
8556;SDS011;4316;53.840;10.762;2024-01-06T07:24:23;12.20;;;6.57;;
8556;SDS011;4316;53.840;10.762;2024-01-06T07:26:49;7.83;;;6.07;;
8556;SDS011;4316;53.840;10.762;2024-01-06T07:29:14;7.90;;;5.97;;
8556;SDS011;4316;53.840;10.762;2024-01-06T07:31:40;9.50;;;6.10;;
8556;SDS011;4316;53.840;10.762;2024-01-06T07:34:05;9.43;;;6.90;;
8556;SDS011;4316;53.840;10.762;2024-01-06T07:36:31;9.20;;;5.90;;
8556;SDS011;4316;53.840;10.762;2024-01-06T07:38:57;9.07;;;7.10;;
8556;SDS011;4316;53.840;10.762;2024-01-06T07:41:22;9.57;;;6.40;;
8556;SDS011;4316;53.840;10.762;2024-01-06T07:43:48;8.00;;;6.17;;
8556;SDS011;4316;53.840;10.762;2024-01-06T07:46:14;9.43;;;6.70;;
8556;SDS011;4316;53.840;10.762;2024-01-06T07:48:40;7.60;;;5.70;;
8556;SDS011;4316;53.840;10.762;2024-01-06T07:51:05;12.73;;;6.57;;
8556;SDS011;4316;53.840;10.762;2024-01-06T07:53:31;9.23;;;5.57;;
8556;SDS011;4316;53.840;10.762;2024-01-06T07:55:56;11.43;;;5.77;;
8556;SDS011;4316;53.840;10.762;2024-01-06T07:58:22;8.07;;;6.07;;
8556;SDS011;4316;53.840;10.762;2024-01-06T08:00:47;7.60;;;6.07;;
8556;SDS011;4316;53.840;10.762;2024-01-06T08:03:13;8.17;;;6.20;;
8556;SDS011;4316;53.840;10.762;2024-01-06T08:05:39;7.90;;;6.13;;
8556;SDS011;4316;53.840;10.762;2024-01-06T08:08:05;8.37;;;5.83;;
8556;SDS011;4316;53.840;10.762;2024-01-06T08:10:30;8.10;;;6.03;;
8556;SDS011;4316;53.840;10.762;2024-01-06T08:12:56;9.33;;;6.00;;
8556;SDS011;4316;53.840;10.762;2024-01-06T08:15:22;9.87;;;6.33;;
8556;SDS011;4316;53.840;10.762;2024-01-06T08:17:47;7.27;;;5.93;;
8556;SDS011;4316;53.840;10.762;2024-01-06T08:20:13;9.10;;;6.67;;
8556;SDS011;4316;53.840;10.762;2024-01-06T08:22:38;7.63;;;6.20;;
8556;SDS011;4316;53.840;10.762;2024-01-06T08:25:04;8.77;;;5.83;;
8556;SDS011;4316;53.840;10.762;2024-01-06T08:27:33;10.10;;;7.20;;
8556;SDS011;4316;53.840;10.762;2024-01-06T08:29:59;8.67;;;6.33;;
8556;SDS011;4316;53.840;10.762;2024-01-06T08:32:25;9.23;;;6.73;;
8556;SDS011;4316;53.840;10.762;2024-01-06T08:34:50;13.47;;;7.03;;
8556;SDS011;4316;53.840;10.762;2024-01-06T08:37:16;9.63;;;6.00;;
8556;SDS011;4316;53.840;10.762;2024-01-06T08:39:41;10.33;;;6.70;;
8556;SDS011;4316;53.840;10.762;2024-01-06T08:42:07;6.67;;;5.90;;
8556;SDS011;4316;53.840;10.762;2024-01-06T08:44:33;8.20;;;6.23;;
8556;SDS011;4316;53.840;10.762;2024-01-06T08:46:58;7.00;;;6.03;;
8556;SDS011;4316;53.840;10.762;2024-01-06T08:49:24;9.00;;;6.23;;
8556;SDS011;4316;53.840;10.762;2024-01-06T08:51:49;7.47;;;6.00;;
8556;SDS011;4316;53.840;10.762;2024-01-06T08:54:15;7.53;;;5.87;;
8556;SDS011;4316;53.840;10.762;2024-01-06T08:56:43;8.07;;;5.37;;
8556;SDS011;4316;53.840;10.762;2024-01-06T08:59:09;9.27;;;6.30;;
8556;SDS011;4316;53.840;10.762;2024-01-06T09:01:34;7.33;;;5.97;;
8556;SDS011;4316;53.840;10.762;2024-01-06T09:04:01;8.10;;;5.50;;
8556;SDS011;4316;53.840;10.762;2024-01-06T09:06:27;9.77;;;6.53;;
8556;SDS011;4316;53.840;10.762;2024-01-06T09:08:53;7.03;;;5.37;;
8556;SDS011;4316;53.840;10.762;2024-01-06T09:11:18;8.33;;;6.37;;
8556;SDS011;4316;53.840;10.762;2024-01-06T09:13:44;7.03;;;5.63;;
8556;SDS011;4316;53.840;10.762;2024-01-06T09:16:09;8.67;;;5.50;;
8556;SDS011;4316;53.840;10.762;2024-01-06T09:18:36;9.17;;;5.20;;
8556;SDS011;4316;53.840;10.762;2024-01-06T09:21:02;6.90;;;5.57;;
8556;SDS011;4316;53.840;10.762;2024-01-06T09:23:28;13.30;;;5.73;;
8556;SDS011;4316;53.840;10.762;2024-01-06T09:25:57;7.47;;;4.50;;
8556;SDS011;4316;53.840;10.762;2024-01-06T09:28:23;5.83;;;5.07;;
8556;SDS011;4316;53.840;10.762;2024-01-06T09:30:48;9.53;;;4.77;;
8556;SDS011;4316;53.840;10.762;2024-01-06T09:33:15;7.43;;;4.27;;
8556;SDS011;4316;53.840;10.762;2024-01-06T09:35:42;7.10;;;4.77;;
8556;SDS011;4316;53.840;10.762;2024-01-06T09:38:09;10.63;;;5.00;;
8556;SDS011;4316;53.840;10.762;2024-01-06T09:40:35;8.40;;;5.67;;
8556;SDS011;4316;53.840;10.762;2024-01-06T09:43:06;5.30;;;3.97;;
8556;SDS011;4316;53.840;10.762;2024-01-06T09:45:32;4.47;;;3.47;;
8556;SDS011;4316;53.840;10.762;2024-01-06T09:47:59;6.67;;;4.50;;
8556;SDS011;4316;53.840;10.762;2024-01-06T09:50:32;6.97;;;4.13;;
8556;SDS011;4316;53.840;10.762;2024-01-06T09:52:58;9.20;;;4.63;;
8556;SDS011;4316;53.840;10.762;2024-01-06T09:55:30;4.83;;;3.57;;
8556;SDS011;4316;53.840;10.762;2024-01-06T09:57:56;7.50;;;3.50;;
8556;SDS011;4316;53.840;10.762;2024-01-06T10:00:21;5.17;;;3.37;;
8556;SDS011;4316;53.840;10.762;2024-01-06T10:02:48;7.10;;;5.47;;
8556;SDS011;4316;53.840;10.762;2024-01-06T10:05:15;4.63;;;3.73;;
8556;SDS011;4316;53.840;10.762;2024-01-06T10:07:42;6.00;;;3.73;;
8556;SDS011;4316;53.840;10.762;2024-01-06T10:10:10;5.07;;;2.90;;
8556;SDS011;4316;53.840;10.762;2024-01-06T10:12:40;3.60;;;2.40;;
8556;SDS011;4316;53.840;10.762;2024-01-06T10:15:10;3.63;;;2.90;;
8556;SDS011;4316;53.840;10.762;2024-01-06T10:17:37;4.93;;;3.47;;
8556;SDS011;4316;53.840;10.762;2024-01-06T10:20:06;3.00;;;2.70;;
8556;SDS011;4316;53.840;10.762;2024-01-06T10:22:36;2.60;;;2.40;;
8556;SDS011;4316;53.840;10.762;2024-01-06T10:25:04;3.47;;;2.90;;
8556;SDS011;4316;53.840;10.762;2024-01-06T10:27:33;3.63;;;2.83;;
8556;SDS011;4316;53.840;10.762;2024-01-06T10:29:59;2.80;;;2.50;;
8556;SDS011;4316;53.840;10.762;2024-01-06T10:32:25;5.30;;;2.60;;
8556;SDS011;4316;53.840;10.762;2024-01-06T10:34:54;4.63;;;2.87;;
8556;SDS011;4316;53.840;10.762;2024-01-06T10:37:20;2.77;;;2.50;;
8556;SDS011;4316;53.840;10.762;2024-01-06T10:39:46;5.53;;;2.80;;
8556;SDS011;4316;53.840;10.762;2024-01-06T10:42:11;3.27;;;2.67;;
8556;SDS011;4316;53.840;10.762;2024-01-06T10:44:39;2.97;;;2.47;;
8556;SDS011;4316;53.840;10.762;2024-01-06T10:47:07;4.97;;;2.97;;
8556;SDS011;4316;53.840;10.762;2024-01-06T10:49:33;4.67;;;2.70;;
8556;SDS011;4316;53.840;10.762;2024-01-06T10:52:00;10.77;;;3.30;;
8556;SDS011;4316;53.840;10.762;2024-01-06T10:54:27;3.70;;;3.23;;
8556;SDS011;4316;53.840;10.762;2024-01-06T10:56:53;3.17;;;2.67;;
8556;SDS011;4316;53.840;10.762;2024-01-06T10:59:21;3.33;;;2.40;;
8556;SDS011;4316;53.840;10.762;2024-01-06T11:01:50;2.60;;;2.33;;
8556;SDS011;4316;53.840;10.762;2024-01-06T11:04:17;3.17;;;2.27;;
8556;SDS011;4316;53.840;10.762;2024-01-06T11:06:45;2.37;;;2.20;;
8556;SDS011;4316;53.840;10.762;2024-01-06T11:09:22;3.53;;;2.00;;
8556;SDS011;4316;53.840;10.762;2024-01-06T11:11:52;2.70;;;2.50;;
8556;SDS011;4316;53.840;10.762;2024-01-06T11:14:19;2.47;;;2.27;;
8556;SDS011;4316;53.840;10.762;2024-01-06T11:16:50;3.13;;;2.63;;
8556;SDS011;4316;53.840;10.762;2024-01-06T11:22:46;5.30;;;2.90;;
8556;SDS011;4316;53.840;10.762;2024-01-06T11:24:50;2.63;;;2.43;;
8556;SDS011;4316;53.840;10.762;2024-01-06T11:27:21;3.03;;;2.53;;
8556;SDS011;4316;53.840;10.762;2024-01-06T11:29:55;1.73;;;1.63;;
8556;SDS011;4316;53.840;10.762;2024-01-06T11:32:27;2.83;;;2.20;;
8556;SDS011;4316;53.840;10.762;2024-01-06T11:34:54;2.43;;;2.17;;
8556;SDS011;4316;53.840;10.762;2024-01-06T11:37:34;2.90;;;2.60;;
8556;SDS011;4316;53.840;10.762;2024-01-06T11:40:09;2.47;;;2.27;;
8556;SDS011;4316;53.840;10.762;2024-01-06T11:42:43;3.43;;;2.53;;
8556;SDS011;4316;53.840;10.762;2024-01-06T11:45:11;2.40;;;2.17;;
8556;SDS011;4316;53.840;10.762;2024-01-06T11:47:38;2.50;;;2.30;;
8556;SDS011;4316;53.840;10.762;2024-01-06T11:50:05;2.47;;;2.23;;
8556;SDS011;4316;53.840;10.762;2024-01-06T11:52:32;2.20;;;2.10;;
8556;SDS011;4316;53.840;10.762;2024-01-06T11:54:58;2.00;;;1.90;;
8556;SDS011;4316;53.840;10.762;2024-01-06T11:57:25;2.67;;;2.30;;
8556;SDS011;4316;53.840;10.762;2024-01-06T11:59:51;2.30;;;2.10;;
8556;SDS011;4316;53.840;10.762;2024-01-06T12:02:17;2.63;;;2.20;;
8556;SDS011;4316;53.840;10.762;2024-01-06T12:04:50;4.43;;;2.00;;
8556;SDS011;4316;53.840;10.762;2024-01-06T12:07:17;1.70;;;1.60;;
8556;SDS011;4316;53.840;10.762;2024-01-06T12:09:45;2.60;;;2.00;;
8556;SDS011;4316;53.840;10.762;2024-01-06T12:12:12;3.40;;;2.70;;
8556;SDS011;4316;53.840;10.762;2024-01-06T12:14:41;3.53;;;2.53;;
8556;SDS011;4316;53.840;10.762;2024-01-06T12:17:11;6.40;;;3.70;;
8556;SDS011;4316;53.840;10.762;2024-01-06T12:19:38;2.20;;;2.10;;
8556;SDS011;4316;53.840;10.762;2024-01-06T12:22:06;4.03;;;2.70;;
8556;SDS011;4316;53.840;10.762;2024-01-06T12:24:35;3.40;;;3.03;;
8556;SDS011;4316;53.840;10.762;2024-01-06T12:27:01;6.47;;;4.53;;
8556;SDS011;4316;53.840;10.762;2024-01-06T12:29:27;5.67;;;2.93;;
8556;SDS011;4316;53.840;10.762;2024-01-06T12:31:58;4.33;;;3.00;;
8556;SDS011;4316;53.840;10.762;2024-01-06T12:34:24;3.00;;;2.77;;
8556;SDS011;4316;53.840;10.762;2024-01-06T12:36:52;6.80;;;4.90;;
8556;SDS011;4316;53.840;10.762;2024-01-06T12:39:20;7.60;;;3.43;;
8556;SDS011;4316;53.840;10.762;2024-01-06T12:41:45;4.63;;;3.03;;
8556;SDS011;4316;53.840;10.762;2024-01-06T12:44:11;4.13;;;3.30;;
8556;SDS011;4316;53.840;10.762;2024-01-06T12:46:37;4.90;;;2.90;;
8556;SDS011;4316;53.840;10.762;2024-01-06T12:49:03;3.23;;;2.93;;
8556;SDS011;4316;53.840;10.762;2024-01-06T12:51:29;3.27;;;2.33;;
8556;SDS011;4316;53.840;10.762;2024-01-06T12:53:54;3.33;;;3.03;;
8556;SDS011;4316;53.840;10.762;2024-01-06T12:56:20;4.47;;;2.63;;
8556;SDS011;4316;53.840;10.762;2024-01-06T12:58:46;3.50;;;2.17;;
8556;SDS011;4316;53.840;10.762;2024-01-06T13:01:11;3.70;;;2.60;;
8556;SDS011;4316;53.840;10.762;2024-01-06T13:03:37;7.60;;;4.43;;
8556;SDS011;4316;53.840;10.762;2024-01-06T13:06:02;3.10;;;2.77;;
8556;SDS011;4316;53.840;10.762;2024-01-06T13:08:28;3.63;;;2.73;;
8556;SDS011;4316;53.840;10.762;2024-01-06T13:10:54;4.07;;;3.03;;
8556;SDS011;4316;53.840;10.762;2024-01-06T13:13:21;6.33;;;3.50;;
8556;SDS011;4316;53.840;10.762;2024-01-06T13:15:47;3.03;;;2.77;;
8556;SDS011;4316;53.840;10.762;2024-01-06T13:18:12;8.23;;;3.00;;
8556;SDS011;4316;53.840;10.762;2024-01-06T13:20:38;3.50;;;2.80;;
8556;SDS011;4316;53.840;10.762;2024-01-06T13:23:09;3.07;;;2.70;;
8556;SDS011;4316;53.840;10.762;2024-01-06T13:25:36;6.03;;;2.53;;
8556;SDS011;4316;53.840;10.762;2024-01-06T13:28:04;4.00;;;3.23;;
8556;SDS011;4316;53.840;10.762;2024-01-06T13:30:31;2.20;;;2.10;;
8556;SDS011;4316;53.840;10.762;2024-01-06T13:32:57;4.10;;;3.53;;
8556;SDS011;4316;53.840;10.762;2024-01-06T13:35:23;3.07;;;2.60;;
8556;SDS011;4316;53.840;10.762;2024-01-06T13:37:53;4.00;;;3.00;;
8556;SDS011;4316;53.840;10.762;2024-01-06T13:40:21;4.17;;;2.60;;
8556;SDS011;4316;53.840;10.762;2024-01-06T13:42:48;4.00;;;2.93;;
8556;SDS011;4316;53.840;10.762;2024-01-06T13:45:14;2.70;;;2.50;;
8556;SDS011;4316;53.840;10.762;2024-01-06T13:47:40;4.93;;;3.17;;
8556;SDS011;4316;53.840;10.762;2024-01-06T13:50:09;8.27;;;3.77;;
8556;SDS011;4316;53.840;10.762;2024-01-06T13:52:40;5.37;;;3.07;;
8556;SDS011;4316;53.840;10.762;2024-01-06T13:55:05;4.83;;;3.47;;
8556;SDS011;4316;53.840;10.762;2024-01-06T13:57:32;7.73;;;2.63;;
8556;SDS011;4316;53.840;10.762;2024-01-06T13:59:57;5.20;;;3.83;;
8556;SDS011;4316;53.840;10.762;2024-01-06T14:02:23;3.07;;;2.77;;
8556;SDS011;4316;53.840;10.762;2024-01-06T14:04:49;4.20;;;2.80;;
8556;SDS011;4316;53.840;10.762;2024-01-06T14:07:16;3.20;;;2.53;;
8556;SDS011;4316;53.840;10.762;2024-01-06T14:09:44;4.37;;;3.33;;
8556;SDS011;4316;53.840;10.762;2024-01-06T14:12:10;6.57;;;3.00;;
8556;SDS011;4316;53.840;10.762;2024-01-06T14:14:36;3.23;;;2.57;;
8556;SDS011;4316;53.840;10.762;2024-01-06T14:17:02;3.43;;;2.20;;
8556;SDS011;4316;53.840;10.762;2024-01-06T14:19:28;6.80;;;2.80;;
8556;SDS011;4316;53.840;10.762;2024-01-06T14:21:53;3.53;;;2.70;;
8556;SDS011;4316;53.840;10.762;2024-01-06T14:24:19;3.10;;;2.67;;
8556;SDS011;4316;53.840;10.762;2024-01-06T14:26:54;3.63;;;2.57;;
8556;SDS011;4316;53.840;10.762;2024-01-06T14:29:21;4.27;;;2.47;;
8556;SDS011;4316;53.840;10.762;2024-01-06T14:31:47;5.07;;;2.97;;
8556;SDS011;4316;53.840;10.762;2024-01-06T14:34:13;3.47;;;2.30;;
8556;SDS011;4316;53.840;10.762;2024-01-06T14:36:40;4.20;;;3.10;;
8556;SDS011;4316;53.840;10.762;2024-01-06T14:39:16;2.57;;;2.23;;
8556;SDS011;4316;53.840;10.762;2024-01-06T14:41:42;3.33;;;2.40;;
8556;SDS011;4316;53.840;10.762;2024-01-06T14:44:07;3.20;;;2.90;;
8556;SDS011;4316;53.840;10.762;2024-01-06T14:46:33;2.47;;;2.27;;
8556;SDS011;4316;53.840;10.762;2024-01-06T14:49:01;3.17;;;2.40;;
8556;SDS011;4316;53.840;10.762;2024-01-06T14:51:28;6.27;;;4.20;;
8556;SDS011;4316;53.840;10.762;2024-01-06T14:53:53;6.77;;;3.87;;
8556;SDS011;4316;53.840;10.762;2024-01-06T14:56:20;7.50;;;4.97;;
8556;SDS011;4316;53.840;10.762;2024-01-06T14:58:46;10.47;;;6.03;;